Flight Track Log - Related Links

Times and Time Zones

All times are in EDT time to prevent confusion due to time zone crossing. See the CPT8773 flight status page for this flight to view local times or setup timezone preferences in your user account.

Time Position Orientation Groundspeed Altitude Reporting Facility
EDT Latitude Longitude Course Direction KTS MPH feet Rate Location/Type
Tue 11:42:09 AM 42.9878 -106.4806 308° West 137 158 8,200  Level Denver Center
Tue 11:43:11 AM 43.0244 -106.4986 340° North 131 151 9,400 1,016 Climbing Denver Center
Tue 11:44:13 AM 43.0553 -106.5086 347° North 125 144 10,300 823 Climbing Denver Center
Tue 11:45:15 AM 43.0853 -106.5128 354° North 118 136 11,100 774 Climbing Denver Center
Tue 11:46:00 AM 43.0834 -106.2668 308° West  Level FlightAware Approximate
Tue 11:46:17 AM 43.1225 -106.5189 353° North 118 136 11,900  Level Denver Center
Tue 11:47:00 AM 43.1068 -106.3076 308° West  Level FlightAware Approximate
Tue 11:47:19 AM 43.1592 -106.5261 352° North 125 144 12,000  Level Denver Center
Tue 11:48:21 AM 43.2094 -106.5331 354° North 142 163 12,000  Level Denver Center
Tue 11:49:23 AM 43.2469 -106.5581 334° Northwest 153 176 12,000  Level Denver Center
Tue 11:50:25 AM 43.2683 -106.6108 299° West 145 167 12,000  Level Denver Center
Tue 11:51:27 AM 43.2897 -106.6539 304° West 143 165 12,000  Level Denver Center
Tue 11:52:29 AM 43.3200 -106.7047 309° West 148 170 12,000 194 Level Denver Center
Tue 11:53:31 AM 43.3433 -106.7494 306° West 150 173 12,400 581 Climbing Denver Center
Tue 11:54:33 AM 43.3667 -106.7936 306° West 137 158 13,200 677 Climbing Denver Center
Tue 11:55:35 AM 43.3858 -106.8303 306° West 129 148 13,800 387 Climbing Denver Center
Tue 11:56:37 AM 43.4072 -106.8742 304° West 125 144 14,000 97 Climbing Denver Center
Tue 11:57:39 AM 43.4272 -106.9142 305° West 128 147 14,000  Level Denver Center
Tue 11:58:41 AM 43.4519 -106.9556 309° West 138 159 14,000  Level Denver Center
Tue 11:59:43 AM 43.4775 -107.0075 304° West 143 165 14,000  Level Denver Center
Tue 12:00:46 PM 43.4994 -107.0528 304° West 146 168 14,000  Level Denver Center
Tue 12:01:48 PM 43.5264 -107.1017 307° West 144 166 14,000  Level Denver Center
Tue 12:02:50 PM 43.5481 -107.1444 305° West 143 165 14,000  Level Denver Center
Tue 12:03:52 PM 43.5731 -107.1933 305° West 141 162 14,000  Level Denver Center
Tue 12:04:54 PM 43.5933 -107.2350 304° West 139 160 14,000 48 Level Denver Center
Tue 12:05:56 PM 43.6169 -107.2878 302° West 142 163 14,100 48 Climbing Salt Lake Center
Tue 12:06:58 PM 43.6403 -107.3294 308° West 143 165 14,100 -49 Level Salt Lake Center
Tue 12:07:59 PM 43.6664 -107.3794 306° West 143 165 14,000  Descending Salt Lake Center
Tue 12:09:01 PM 43.6881 -107.4228 305° West 143 165 14,100 48 Climbing Salt Lake Center
Tue 12:10:03 PM 43.7108 -107.4644 307° West 143 165 14,100  Level Salt Lake Center
Tue 12:11:04 PM 43.7364 -107.5142 305° West 142 163 14,100  Level Salt Lake Center
Tue 12:12:06 PM 43.7586 -107.5569 306° West 142 163 14,100  Level Salt Lake Center
Tue 12:13:07 PM 43.7858 -107.6083 306° West 145 167 14,100  Level Salt Lake Center
Tue 12:14:09 PM 43.8142 -107.6481 315° West 149 171 14,100  Level Salt Lake Center
Tue 12:15:11 PM 43.8433 -107.6875 316° Northwest 151 174 14,100  Level Salt Lake Center
Tue 12:16:12 PM 43.8800 -107.7319 319° Northwest 155 178 14,100 49 Level Salt Lake Center
Tue 12:17:14 PM 43.9103 -107.7728 316° Northwest 157 181 14,200 48 Climbing Salt Lake Center
Tue 12:18:16 PM 43.9442 -107.8194 315° West 155 178 14,200 -49 Level Salt Lake Center
Tue 12:19:17 PM 43.9736 -107.8589 316° Northwest 154 177 14,100 -49 Descending Salt Lake Center
Tue 12:20:19 PM 44.0100 -107.9061 317° Northwest 157 181 14,100  Level Salt Lake Center
Tue 12:21:21 PM 44.0417 -107.9456 318° Northwest 159 183 14,100  Level Salt Lake Center
Tue 12:22:22 PM 44.0733 -107.9869 317° Northwest 160 184 14,100 -49 Level Salt Lake Center
Tue 12:23:24 PM 44.1097 -108.0353 316° Northwest 161 185 14,000 -48 Descending Salt Lake Center
Tue 12:24:26 PM 44.1392 -108.0761 315° West 159 183 14,000 -1,951 Level Salt Lake Center
Tue 12:25:27 PM 44.1742 -108.1242 315° West 158 182 10,000  Descending Salt Lake Center
Tue 12:26:29 PM 44.2042 -108.1642 316° Northwest 157 181 14,000 1,935 Climbing Salt Lake Center
Tue 12:27:31 PM 44.2394 -108.2103 317° Northwest 156 180 14,000  Level Salt Lake Center
Tue 12:28:32 PM 44.2692 -108.2503 316° Northwest 155 178 14,000  Level Salt Lake Center
Tue 12:29:34 PM 44.2992 -108.2897 317° Northwest 155 178 14,000  Level Salt Lake Center
Tue 12:30:36 PM 44.3333 -108.3356 316° Northwest 154 177 14,000 -97 Level Salt Lake Center
Tue 12:31:38 PM 44.3619 -108.3747 316° Northwest 152 175 13,800 -488 Descending Salt Lake Center
Tue 12:32:39 PM 44.3939 -108.4222 313° West 151 174 13,000 -780 Descending Salt Lake Center
Tue 12:33:41 PM 44.4239 -108.4617 317° Northwest 152 175 12,200 -774 Descending Salt Lake Center
Tue 12:34:43 PM 44.4539 -108.5042 315° West 155 178 11,400 -732 Descending Salt Lake Center
Tue 12:35:44 PM 44.4900 -108.5539 316° Northwest 160 184 10,700 -634 Descending Salt Lake Center
Tue 12:36:46 PM 44.5194 -108.5942 316° Northwest 158 182 10,100 -339 Descending Salt Lake Center
Tue 12:37:48 PM 44.5517 -108.6397 315° West 153 176 10,000 -145 Descending Salt Lake Center
Tue 12:38:50 PM 44.5783 -108.6756 316° Northwest 146 168 9,800 -585 Descending Salt Lake Center
Tue 12:39:51 PM 44.6142 -108.7122 324° Northwest 142 163 8,800 -585 Descending Salt Lake Center
Tue 12:40:53 PM 44.6464 -108.7458 323° Northwest 145 167 8,600 -194 Descending Salt Lake Center

Login

Don't have an account? Register now (free) for customized features, flight alerts, and more!